Time;durP1;ratioP1;P1;durP2;ratioP2;P2;SDS_P1;SDS_P2;PMS_P1;PMS_P2;Temp;Humidity;BMP_temperature;BMP_pressure;BME280_temperature;BME280_humidity;BME280_pressure;Samples;Min_cycle;Max_cycle;Signal;HPM_P1;HPM_P2
2022/03/19 00:00:21;;;;;;;12.25;5.75;;;;;;;;;;4971080;28;20696;-69
2022/03/19 00:02:47;;;;;;;12.82;5.38;;;;;;;;;;4968501;28;20439;-69
2022/03/19 00:05:14;;;;;;;14.75;4.93;;;;;;;;;;4963149;28;20077;-69
2022/03/19 00:07:40;;;;;;;20.13;5.55;;;;;;;;;;4967403;28;20054;-69
2022/03/19 00:10:08;;;;;;;13.43;4.80;;;;;;;;;;4966095;28;20307;-70
2022/03/19 00:12:41;;;;;;;11.77;4.50;;;;;;;;;;4971288;28;20085;-69
2022/03/19 00:15:08;;;;;;;9.75;4.38;;;;;;;;;;4975007;28;20424;-69
2022/03/19 00:17:34;;;;;;;16.70;4.97;;;;;;;;;;4955897;28;20690;-69
2022/03/19 00:20:01;;;;;;;17.42;5.22;;;;;;;;;;4972527;28;20064;-69
2022/03/19 00:22:27;;;;;;;16.10;4.75;;;;;;;;;;4968559;28;20069;-69
2022/03/19 00:24:53;;;;;;;15.57;5.25;;;;;;;;;;4964502;28;20050;-69
2022/03/19 00:27:20;;;;;;;11.63;4.70;;;;;;;;;;4964471;28;20549;-69
2022/03/19 00:29:46;;;;;;;13.18;4.40;;;;;;;;;;4971939;28;20073;-69
2022/03/19 00:32:12;;;;;;;15.68;4.95;;;;;;;;;;4968775;28;20082;-69
2022/03/19 00:34:39;;;;;;;16.75;4.85;;;;;;;;;;4962611;28;20396;-69
2022/03/19 00:37:05;;;;;;;14.68;4.45;;;;;;;;;;4978790;28;20438;-69
2022/03/19 00:39:31;;;;;;;13.30;4.43;;;;;;;;;;4969156;28;20053;-69
2022/03/19 00:41:57;;;;;;;13.63;4.07;;;;;;;;;;4973669;28;20054;-69
2022/03/19 00:44:24;;;;;;;11.02;3.60;;;;;;;;;;4968251;28;20043;-69
2022/03/19 00:46:51;;;;;;;19.20;4.70;;;;;;;;;;4972706;28;20058;-69
2022/03/19 00:49:17;;;;;;;12.68;3.60;;;;;;;;;;4983313;28;20046;-70
2022/03/19 00:51:43;;;;;;;11.60;3.65;;;;;;;;;;4966847;28;20057;-69
2022/03/19 00:54:11;;;;;;;16.25;4.38;;;;;;;;;;4977052;28;20312;-69
2022/03/19 00:56:37;;;;;;;12.83;3.83;;;;;;;;;;4966571;28;20081;-69
2022/03/19 00:59:04;;;;;;;17.30;5.00;;;;;;;;;;4967386;28;20519;-68
2022/03/19 01:01:30;;;;;;;14.70;4.60;;;;;;;;;;4969700;28;20205;-68
2022/03/19 01:03:57;;;;;;;12.63;4.03;;;;;;;;;;4968765;28;20054;-67
2022/03/19 01:06:23;;;;;;;13.77;4.25;;;;;;;;;;4971421;28;20053;-68
2022/03/19 01:08:55;;;;;;;14.55;4.22;;;;;;;;;;4960511;28;20904;-69
2022/03/19 01:11:24;;;;;;;17.17;4.50;;;;;;;;;;4974626;28;20495;-69
2022/03/19 01:13:51;;;;;;;13.45;4.10;;;;;;;;;;4964382;28;20050;-68
2022/03/19 01:16:19;;;;;;;10.98;3.85;;;;;;;;;;4971577;28;20054;-69
2022/03/19 01:18:45;;;;;;;16.02;3.80;;;;;;;;;;4973000;28;20242;-69
2022/03/19 01:21:12;;;;;;;13.07;4.40;;;;;;;;;;4964763;28;20061;-67
2022/03/19 01:23:38;;;;;;;17.17;4.90;;;;;;;;;;4971068;28;20432;-69
2022/03/19 01:26:04;;;;;;;15.32;4.53;;;;;;;;;;4960409;28;20053;-69
2022/03/19 01:28:31;;;;;;;14.32;4.38;;;;;;;;;;4967147;28;20571;-69
2022/03/19 01:30:57;;;;;;;13.63;4.35;;;;;;;;;;4964800;28;20301;-70
2022/03/19 01:33:24;;;;;;;15.30;4.25;;;;;;;;;;4975983;28;20499;-69
2022/03/19 01:35:50;;;;;;;16.95;4.57;;;;;;;;;;4978673;28;20314;-69
2022/03/19 01:38:17;;;;;;;15.80;4.65;;;;;;;;;;4973750;28;20046;-68
2022/03/19 01:40:43;;;;;;;12.70;4.45;;;;;;;;;;4977989;28;20061;-69
2022/03/19 01:43:09;;;;;;;11.05;3.97;;;;;;;;;;4976328;28;20061;-69
2022/03/19 01:45:36;;;;;;;21.27;5.35;;;;;;;;;;4980585;28;20427;-70
2022/03/19 01:48:02;;;;;;;12.15;4.47;;;;;;;;;;4982428;28;20054;-69
2022/03/19 01:50:29;;;;;;;13.00;4.38;;;;;;;;;;4973784;28;20496;-69
2022/03/19 01:52:56;;;;;;;20.85;5.55;;;;;;;;;;4973431;28;20053;-69
2022/03/19 01:55:23;;;;;;;10.10;3.53;;;;;;;;;;4985791;28;20658;-69
2022/03/19 01:57:49;;;;;;;15.48;4.85;;;;;;;;;;4985819;28;20052;-69
2022/03/19 02:00:18;;;;;;;14.85;4.20;;;;;;;;;;4979693;28;20061;-69
2022/03/19 02:02:45;;;;;;;15.50;4.90;;;;;;;;;;4981746;28;20055;-69
2022/03/19 02:05:14;;;;;;;15.95;5.20;;;;;;;;;;4978039;28;20122;-69
2022/03/19 02:07:41;;;;;;;14.23;4.82;;;;;;;;;;4972961;28;20054;-70
2022/03/19 02:10:07;;;;;;;19.75;5.40;;;;;;;;;;4980502;28;20053;-69
2022/03/19 02:12:34;;;;;;;17.70;4.80;;;;;;;;;;4981416;28;20054;-69
2022/03/19 02:15:00;;;;;;;14.10;4.70;;;;;;;;;;4977798;28;20492;-70
2022/03/19 02:17:26;;;;;;;15.82;4.60;;;;;;;;;;4980751;28;20988;-69
2022/03/19 02:19:54;;;;;;;17.67;4.47;;;;;;;;;;4977577;28;20050;-70
2022/03/19 02:22:21;;;;;;;16.17;4.63;;;;;;;;;;4970848;28;20049;-70
2022/03/19 02:27:33;;;;;;;12.88;5.55;;;;;;;;;;4974950;28;20043;-69
2022/03/19 02:30:00;;;;;;;14.88;4.30;;;;;;;;;;4976509;28;20050;-69
2022/03/19 02:32:26;;;;;;;16.95;4.97;;;;;;;;;;4986789;28;20057;-69
2022/03/19 02:34:54;;;;;;;13.32;5.22;;;;;;;;;;4965897;28;20399;-69
2022/03/19 02:37:21;;;;;;;19.73;5.00;;;;;;;;;;4985684;28;20050;-69
2022/03/19 02:39:47;;;;;;;16.60;4.63;;;;;;;;;;4999484;28;20053;-69
2022/03/19 02:42:18;;;;;;;15.70;5.05;;;;;;;;;;4977040;28;20129;-69
2022/03/19 02:44:45;;;;;;;14.77;4.45;;;;;;;;;;4981289;28;20050;-69
2022/03/19 02:47:11;;;;;;;13.07;4.63;;;;;;;;;;4974697;28;20094;-69
2022/03/19 02:49:38;;;;;;;17.55;4.97;;;;;;;;;;4982221;28;20757;-69
2022/03/19 02:52:04;;;;;;;20.17;5.47;;;;;;;;;;4973920;28;20061;-69
2022/03/19 02:54:31;;;;;;;13.05;4.95;;;;;;;;;;4985152;28;20058;-69
2022/03/19 02:56:58;;;;;;;15.13;5.03;;;;;;;;;;4998885;28;20340;-69
2022/03/19 02:59:27;;;;;;;17.23;5.22;;;;;;;;;;4977270;28;20054;-69
2022/03/19 03:01:54;;;;;;;22.88;6.13;;;;;;;;;;4981036;28;20054;-69
2022/03/19 03:04:21;;;;;;;17.52;5.38;;;;;;;;;;4975443;28;20050;-69
2022/03/19 03:06:48;;;;;;;20.00;5.57;;;;;;;;;;4981990;28;20075;-69
2022/03/19 03:09:17;;;;;;;18.67;5.55;;;;;;;;;;4978495;28;20042;-70
2022/03/19 03:11:44;;;;;;;15.68;5.47;;;;;;;;;;4986810;28;20042;-69
2022/03/19 03:14:10;;;;;;;15.13;5.45;;;;;;;;;;4979530;28;20050;-69
2022/03/19 03:16:37;;;;;;;18.92;5.95;;;;;;;;;;4968740;28;20046;-69
2022/03/19 03:19:05;;;;;;;13.40;5.32;;;;;;;;;;4982321;28;20054;-69
2022/03/19 03:21:31;;;;;;;17.15;5.47;;;;;;;;;;4974091;28;20046;-69
2022/03/19 03:23:58;;;;;;;19.83;5.25;;;;;;;;;;4982050;28;20046;-69
2022/03/19 03:26:25;;;;;;;20.45;6.20;;;;;;;;;;4979801;28;20057;-69
2022/03/19 03:28:51;;;;;;;20.77;6.30;;;;;;;;;;4976247;28;20299;-69
2022/03/19 03:31:18;;;;;;;19.38;5.38;;;;;;;;;;4978672;28;20042;-69
2022/03/19 03:33:45;;;;;;;16.85;5.78;;;;;;;;;;4973770;28;20581;-69
2022/03/19 03:36:11;;;;;;;13.70;5.78;;;;;;;;;;4976268;28;20045;-68
2022/03/19 03:38:38;;;;;;;19.30;6.47;;;;;;;;;;4970356;28;20059;-68
2022/03/19 03:41:04;;;;;;;20.50;5.72;;;;;;;;;;4982630;28;20050;-69
2022/03/19 03:43:30;;;;;;;24.33;7.53;;;;;;;;;;4974685;28;20059;-69
2022/03/19 03:45:57;;;;;;;19.95;6.13;;;;;;;;;;4979815;28;20045;-68
2022/03/19 03:48:23;;;;;;;17.95;5.70;;;;;;;;;;4981554;28;20050;-68
2022/03/19 03:50:51;;;;;;;15.40;5.22;;;;;;;;;;4972879;28;20068;-68
2022/03/19 03:53:18;;;;;;;17.20;5.95;;;;;;;;;;4988857;28;20043;-68
2022/03/19 03:55:44;;;;;;;27.20;8.20;;;;;;;;;;4970141;28;20050;-68
2022/03/19 03:58:11;;;;;;;16.17;5.68;;;;;;;;;;4972494;28;20054;-68
2022/03/19 04:00:39;;;;;;;13.63;5.90;;;;;;;;;;4971520;28;20105;-68
2022/03/19 04:03:06;;;;;;;19.83;5.88;;;;;;;;;;4972785;28;20082;-68
2022/03/19 04:05:35;;;;;;;15.50;6.07;;;;;;;;;;4983547;28;20488;-68
2022/03/19 04:08:03;;;;;;;17.90;6.07;;;;;;;;;;4977514;28;20054;-68
2022/03/19 04:10:31;;;;;;;17.97;5.73;;;;;;;;;;4978096;28;20054;-68
2022/03/19 04:12:57;;;;;;;15.32;5.90;;;;;;;;;;4971458;28;20287;-68
2022/03/19 04:15:24;;;;;;;16.88;6.05;;;;;;;;;;4981961;28;20053;-68
2022/03/19 04:17:51;;;;;;;13.90;6.15;;;;;;;;;;4977845;28;20516;-69
2022/03/19 04:20:17;;;;;;;19.30;5.60;;;;;;;;;;4979544;28;20050;-68
2022/03/19 04:22:44;;;;;;;20.27;6.55;;;;;;;;;;4978103;28;20142;-68
2022/03/19 04:25:12;;;;;;;17.30;6.32;;;;;;;;;;4958529;28;20510;-68
2022/03/19 04:27:39;;;;;;;19.48;6.45;;;;;;;;;;4973899;28;20054;-68
2022/03/19 04:30:05;;;;;;;17.63;6.43;;;;;;;;;;4974413;28;20046;-68
2022/03/19 04:32:32;;;;;;;20.80;6.65;;;;;;;;;;4970955;28;20047;-68
2022/03/19 04:36:29;;;;;;;17.02;6.90;;;;;;;;;;4978494;28;20058;-68
2022/03/19 04:37:45;;;;;;;16.95;6.38;;;;;;;;;;4976631;28;20108;-68
2022/03/19 04:40:11;;;;;;;16.95;6.28;;;;;;;;;;4967128;28;20050;-68
2022/03/19 04:42:38;;;;;;;20.60;6.90;;;;;;;;;;4964244;28;20054;-68
2022/03/19 04:45:04;;;;;;;19.15;8.20;;;;;;;;;;4990527;28;20133;-68
2022/03/19 04:47:31;;;;;;;15.93;6.82;;;;;;;;;;4984421;28;20442;-68
2022/03/19 04:49:59;;;;;;;22.48;7.80;;;;;;;;;;4972829;28;20050;-69
2022/03/19 04:52:26;;;;;;;17.60;7.15;;;;;;;;;;4967340;28;20046;-69
2022/03/19 04:54:57;;;;;;;18.85;7.25;;;;;;;;;;4976558;28;20058;-68
2022/03/19 04:57:24;;;;;;;17.27;6.57;;;;;;;;;;4979978;28;20049;-68
2022/03/19 04:59:50;;;;;;;21.30;7.25;;;;;;;;;;4968482;28;20057;-69
2022/03/19 05:02:16;;;;;;;15.05;6.50;;;;;;;;;;4982314;28;20476;-68
2022/03/19 05:04:43;;;;;;;20.95;7.53;;;;;;;;;;4976176;28;20149;-69
2022/03/19 05:07:10;;;;;;;15.73;5.88;;;;;;;;;;4970388;28;20517;-68
2022/03/19 05:12:27;;;;;;;16.70;6.85;;;;;;;;;;4981931;28;20058;-68
2022/03/19 05:14:54;;;;;;;23.15;7.85;;;;;;;;;;4976116;28;20062;-69
2022/03/19 05:17:20;;;;;;;18.48;6.95;;;;;;;;;;4973153;28;20062;-68
2022/03/19 05:19:46;;;;;;;18.08;6.82;;;;;;;;;;4981135;28;20053;-68
2022/03/19 05:22:12;;;;;;;17.20;6.45;;;;;;;;;;4974044;28;20054;-68
2022/03/19 05:24:39;;;;;;;15.32;6.60;;;;;;;;;;4983045;28;20054;-68
2022/03/19 05:27:05;;;;;;;19.52;7.03;;;;;;;;;;4974074;28;20651;-68
2022/03/19 05:29:31;;;;;;;14.45;6.25;;;;;;;;;;4974999;28;20057;-68
2022/03/19 05:31:58;;;;;;;17.23;7.40;;;;;;;;;;4977280;28;20440;-69
2022/03/19 05:34:31;;;;;;;15.30;6.60;;;;;;;;;;4966014;28;20054;-68
2022/03/19 05:36:58;;;;;;;16.73;7.75;;;;;;;;;;4966106;28;20051;-68
2022/03/19 05:39:26;;;;;;;18.05;7.97;;;;;;;;;;4971079;28;20069;-68
2022/03/19 05:41:52;;;;;;;15.40;6.43;;;;;;;;;;4980761;28;20054;-69
2022/03/19 05:44:18;;;;;;;19.42;7.05;;;;;;;;;;4978344;28;20046;-69
2022/03/19 05:46:45;;;;;;;18.17;7.15;;;;;;;;;;4973455;28;20109;-68
2022/03/19 05:49:11;;;;;;;16.80;7.25;;;;;;;;;;4976718;28;20097;-68
2022/03/19 05:51:38;;;;;;;17.05;6.65;;;;;;;;;;4977249;28;20057;-68
2022/03/19 05:54:04;;;;;;;14.30;6.57;;;;;;;;;;4977165;28;20518;-68
2022/03/19 05:56:30;;;;;;;16.33;6.63;;;;;;;;;;4971861;28;20047;-68
2022/03/19 05:58:56;;;;;;;15.80;6.88;;;;;;;;;;4969546;28;20057;-68
2022/03/19 06:01:26;;;;;;;19.55;7.28;;;;;;;;;;4976773;28;20822;-68
2022/03/19 06:03:53;;;;;;;15.63;7.32;;;;;;;;;;4976065;28;20089;-68
2022/03/19 06:06:20;;;;;;;18.27;6.50;;;;;;;;;;4981202;28;20125;-69
2022/03/19 06:08:46;;;;;;;16.33;6.28;;;;;;;;;;4977500;28;20057;-69
2022/03/19 06:11:12;;;;;;;12.18;6.40;;;;;;;;;;4981389;28;20050;-68
2022/03/19 06:13:39;;;;;;;13.75;5.82;;;;;;;;;;4971781;28;20265;-69
2022/03/19 06:16:05;;;;;;;14.98;6.53;;;;;;;;;;4979641;28;20045;-68
2022/03/19 06:18:32;;;;;;;16.92;6.50;;;;;;;;;;4985475;28;20738;-68
2022/03/19 06:20:58;;;;;;;23.58;7.35;;;;;;;;;;4975127;28;20061;-68
2022/03/19 06:23:25;;;;;;;19.58;6.53;;;;;;;;;;4985729;28;20050;-68
2022/03/19 06:25:51;;;;;;;18.30;6.13;;;;;;;;;;4967221;28;20047;-69
2022/03/19 06:28:17;;;;;;;16.40;6.70;;;;;;;;;;4982335;28;20050;-68
2022/03/19 06:30:44;;;;;;;12.90;6.15;;;;;;;;;;4969148;28;20051;-68
2022/03/19 06:33:16;;;;;;;13.85;5.60;;;;;;;;;;4973951;28;20050;-68
2022/03/19 06:38:29;;;;;;;14.68;6.00;;;;;;;;;;4966011;28;20082;-68
2022/03/19 06:40:57;;;;;;;12.90;5.20;;;;;;;;;;4973416;28;20050;-69
2022/03/19 06:43:24;;;;;;;13.68;5.45;;;;;;;;;;4968690;28;20046;-69
2022/03/19 06:45:51;;;;;;;15.07;5.88;;;;;;;;;;4983475;28;20058;-68
2022/03/19 06:48:17;;;;;;;12.48;5.70;;;;;;;;;;4978096;28;20551;-69
2022/03/19 06:50:44;;;;;;;15.13;6.30;;;;;;;;;;4984402;28;20065;-69
2022/03/19 06:53:10;;;;;;;14.52;6.20;;;;;;;;;;4970840;28;20053;-69
2022/03/19 06:55:36;;;;;;;19.42;6.43;;;;;;;;;;4956443;28;20075;-68
2022/03/19 06:58:02;;;;;;;14.52;6.07;;;;;;;;;;4972574;28;20467;-68
2022/03/19 07:00:29;;;;;;;16.85;5.82;;;;;;;;;;4966910;28;20047;-68
2022/03/19 07:02:55;;;;;;;13.27;6.20;;;;;;;;;;4975654;28;20101;-68
2022/03/19 07:05:23;;;;;;;12.55;5.63;;;;;;;;;;4967220;28;20082;-68
2022/03/19 07:07:49;;;;;;;13.77;5.72;;;;;;;;;;4968758;28;20051;-68
2022/03/19 07:10:18;;;;;;;17.42;6.30;;;;;;;;;;4978568;28;20062;-68
2022/03/19 07:12:48;;;;;;;18.58;6.32;;;;;;;;;;4976280;28;20058;-68
2022/03/19 07:15:16;;;;;;;11.60;5.30;;;;;;;;;;4977102;28;20065;-69
2022/03/19 07:17:43;;;;;;;11.73;4.97;;;;;;;;;;4970704;28;20049;-69
2022/03/19 07:20:10;;;;;;;12.57;5.18;;;;;;;;;;4970853;28;20051;-68
2022/03/19 07:22:47;;;;;;;13.68;5.35;;;;;;;;;;4959940;28;20046;-69
2022/03/19 07:25:14;;;;;;;12.40;5.32;;;;;;;;;;4966099;28;20431;-68
2022/03/19 07:27:40;;;;;;;15.77;4.93;;;;;;;;;;4976269;28;20234;-68
2022/03/19 07:30:06;;;;;;;13.93;5.07;;;;;;;;;;4975673;28;20073;-68
2022/03/19 07:32:33;;;;;;;12.32;4.95;;;;;;;;;;4980569;28;20046;-68
2022/03/19 07:35:00;;;;;;;13.20;5.00;;;;;;;;;;4975927;28;20050;-68
2022/03/19 07:37:29;;;;;;;13.43;5.30;;;;;;;;;;4972227;28;20050;-68
2022/03/19 07:39:56;;;;;;;13.43;5.03;;;;;;;;;;4972432;28;20061;-68
2022/03/19 07:42:23;;;;;;;15.40;4.57;;;;;;;;;;4979012;28;20054;-68
2022/03/19 07:44:49;;;;;;;14.57;4.78;;;;;;;;;;4982783;28;20515;-68
2022/03/19 07:47:15;;;;;;;14.95;4.95;;;;;;;;;;4977143;28;20054;-68
2022/03/19 07:49:42;;;;;;;18.15;5.70;;;;;;;;;;4977756;28;20058;-69
2022/03/19 07:52:08;;;;;;;11.95;5.07;;;;;;;;;;4966839;28;20046;-68
2022/03/19 07:54:36;;;;;;;14.55;4.70;;;;;;;;;;4982939;28;20051;-68
2022/03/19 07:57:03;;;;;;;10.82;4.63;;;;;;;;;;4970370;28;20074;-69
2022/03/19 07:59:29;;;;;;;16.77;5.30;;;;;;;;;;4980925;28;20049;-68
2022/03/19 08:01:56;;;;;;;11.93;5.30;;;;;;;;;;4980797;28;20431;-68
2022/03/19 08:04:23;;;;;;;13.52;5.50;;;;;;;;;;4966737;28;20047;-68
2022/03/19 08:06:53;;;;;;;15.00;4.80;;;;;;;;;;4974483;28;20073;-68
2022/03/19 08:09:19;;;;;;;8.55;4.70;;;;;;;;;;4973449;28;20049;-68
2022/03/19 08:11:49;;;;;;;11.98;5.47;;;;;;;;;;4977737;28;20047;-68
2022/03/19 08:14:16;;;;;;;12.80;5.22;;;;;;;;;;4965611;28;20051;-68
2022/03/19 08:16:43;;;;;;;12.35;4.65;;;;;;;;;;4968888;28;20285;-67
2022/03/19 08:19:12;;;;;;;14.38;4.82;;;;;;;;;;4972448;28;20133;-68
2022/03/19 08:21:39;;;;;;;12.02;4.68;;;;;;;;;;4970974;28;20077;-68
2022/03/19 08:24:06;;;;;;;12.43;4.75;;;;;;;;;;4972310;28;20050;-68
2022/03/19 08:26:33;;;;;;;15.02;5.05;;;;;;;;;;4976861;28;20052;-68
2022/03/19 08:28:59;;;;;;;16.40;4.57;;;;;;;;;;4980190;28;20054;-68
2022/03/19 08:31:26;;;;;;;13.82;5.32;;;;;;;;;;4969825;28;20058;-68
2022/03/19 08:33:52;;;;;;;12.80;4.22;;;;;;;;;;4970687;28;20125;-68
2022/03/19 08:36:19;;;;;;;15.88;4.63;;;;;;;;;;4979928;28;20455;-67
2022/03/19 08:41:30;;;;;;;15.05;4.90;;;;;;;;;;4969586;28;20445;-67
2022/03/19 08:43:57;;;;;;;12.90;4.50;;;;;;;;;;4968693;28;20701;-69
2022/03/19 08:46:24;;;;;;;10.90;4.53;;;;;;;;;;4974014;28;20054;-68
2022/03/19 08:48:51;;;;;;;10.55;5.07;;;;;;;;;;4973919;28;20055;-69
2022/03/19 08:54:03;;;;;;;14.95;5.00;;;;;;;;;;4979071;28;20053;-68
2022/03/19 08:56:30;;;;;;;14.95;4.50;;;;;;;;;;4966692;28;20235;-68
2022/03/19 08:58:56;;;;;;;11.32;3.65;;;;;;;;;;4966577;28;20050;-68
2022/03/19 09:01:23;;;;;;;11.30;3.53;;;;;;;;;;4966842;28;20057;-68
2022/03/19 09:03:49;;;;;;;8.20;3.78;;;;;;;;;;4978455;28;20051;-68
2022/03/19 09:06:17;;;;;;;23.45;4.25;;;;;;;;;;4968729;28;20475;-69
2022/03/19 09:08:43;;;;;;;13.23;4.50;;;;;;;;;;4975981;28;20057;-69
2022/03/19 09:11:10;;;;;;;10.15;3.90;;;;;;;;;;4975345;28;20061;-69
2022/03/19 09:13:36;;;;;;;11.43;3.55;;;;;;;;;;4964302;28;20069;-68
2022/03/19 09:16:03;;;;;;;10.65;3.47;;;;;;;;;;4971144;28;20052;-68
2022/03/19 09:18:30;;;;;;;14.50;3.80;;;;;;;;;;4966669;28;20401;-68
2022/03/19 09:20:57;;;;;;;10.48;3.97;;;;;;;;;;4981022;28;20421;-68
2022/03/19 09:23:23;;;;;;;10.95;3.38;;;;;;;;;;4968081;28;20286;-68
2022/03/19 09:25:50;;;;;;;10.93;3.15;;;;;;;;;;4985416;28;20070;-68
2022/03/19 09:28:16;;;;;;;9.98;4.22;;;;;;;;;;4972159;28;20508;-69
2022/03/19 09:30:42;;;;;;;12.07;3.30;;;;;;;;;;4965535;28;20047;-68
2022/03/19 09:33:09;;;;;;;8.10;2.70;;;;;;;;;;4979737;28;20229;-68
2022/03/19 09:35:43;;;;;;;10.82;2.90;;;;;;;;;;4965133;28;20051;-68
2022/03/19 09:38:10;;;;;;;7.03;2.67;;;;;;;;;;4976449;28;20537;-68
2022/03/19 09:40:36;;;;;;;10.05;2.75;;;;;;;;;;4966850;28;20054;-68
2022/03/19 09:43:02;;;;;;;9.32;2.97;;;;;;;;;;4974760;28;20058;-68
2022/03/19 09:45:29;;;;;;;9.68;2.92;;;;;;;;;;4983048;28;20054;-68
2022/03/19 09:47:55;;;;;;;9.07;2.60;;;;;;;;;;4969881;28;20058;-68
2022/03/19 09:50:22;;;;;;;9.40;2.42;;;;;;;;;;4976337;28;20042;-68
2022/03/19 09:52:53;;;;;;;8.07;2.30;;;;;;;;;;4960700;28;20042;-68
2022/03/19 09:55:26;;;;;;;6.50;2.30;;;;;;;;;;4965762;28;20148;-68
2022/03/19 09:57:53;;;;;;;6.70;2.10;;;;;;;;;;4968747;28;20050;-69
2022/03/19 10:00:24;;;;;;;7.90;2.15;;;;;;;;;;4972912;28;20468;-67
2022/03/19 10:02:57;;;;;;;11.85;2.40;;;;;;;;;;4981590;28;20074;-67
2022/03/19 10:10:55;;;;;;;10.75;3.03;;;;;;;;;;4963165;28;20178;-67
2022/03/19 10:13:23;;;;;;;8.82;2.45;;;;;;;;;;4976453;28;20568;-67
2022/03/19 10:15:49;;;;;;;8.15;2.40;;;;;;;;;;4969071;28;20058;-67
2022/03/19 10:18:15;;;;;;;5.50;2.08;;;;;;;;;;4977936;28;20058;-67
2022/03/19 10:20:42;;;;;;;9.73;2.90;;;;;;;;;;4975408;28;20046;-67
2022/03/19 10:23:08;;;;;;;6.07;2.30;;;;;;;;;;4965591;28;20282;-67
2022/03/19 10:25:34;;;;;;;6.88;2.70;;;;;;;;;;4976975;28;20046;-67
2022/03/19 10:28:03;;;;;;;8.10;2.85;;;;;;;;;;4972076;28;20328;-67
2022/03/19 10:30:36;;;;;;;10.65;2.42;;;;;;;;;;4981206;28;20463;-67
2022/03/19 10:33:02;;;;;;;6.00;2.47;;;;;;;;;;4967731;28;20137;-67
2022/03/19 10:35:30;;;;;;;7.85;2.05;;;;;;;;;;4973992;28;20411;-67
2022/03/19 10:37:57;;;;;;;6.20;2.33;;;;;;;;;;4972415;28;20402;-67
2022/03/19 10:40:37;;;;;;;7.63;2.15;;;;;;;;;;4966266;28;20461;-67
2022/03/19 10:43:04;;;;;;;5.93;2.00;;;;;;;;;;4974310;28;20138;-67
2022/03/19 10:45:31;;;;;;;8.90;2.63;;;;;;;;;;4965537;28;20051;-67
2022/03/19 10:47:59;;;;;;;5.78;1.88;;;;;;;;;;4976121;28;20528;-67
2022/03/19 10:50:26;;;;;;;9.15;2.10;;;;;;;;;;4963184;28;20046;-67
2022/03/19 10:52:52;;;;;;;5.10;1.70;;;;;;;;;;4972061;28;20436;-67
2022/03/19 10:55:19;;;;;;;5.22;1.95;;;;;;;;;;4976265;28;20573;-67
2022/03/19 10:57:46;;;;;;;11.25;2.95;;;;;;;;;;4968993;28;20081;-67
2022/03/19 11:00:13;;;;;;;7.10;2.20;;;;;;;;;;4978906;28;20057;-67
2022/03/19 11:02:45;;;;;;;7.38;2.30;;;;;;;;;;4968437;28;20588;-67
2022/03/19 11:05:12;;;;;;;8.05;2.53;;;;;;;;;;4963991;28;20443;-67
2022/03/19 11:07:42;;;;;;;7.47;1.67;;;;;;;;;;4960034;28;20061;-67
2022/03/19 11:10:09;;;;;;;5.90;1.92;;;;;;;;;;4969201;28;20468;-67
2022/03/19 11:12:38;;;;;;;6.55;1.83;;;;;;;;;;4965979;28;20073;-68
2022/03/19 11:15:05;;;;;;;10.93;2.42;;;;;;;;;;4958126;28;20069;-68
2022/03/19 11:17:32;;;;;;;5.15;2.00;;;;;;;;;;4964379;28;20582;-67
2022/03/19 11:20:00;;;;;;;11.10;2.13;;;;;;;;;;4958132;28;20322;-67
2022/03/19 11:22:39;;;;;;;6.38;2.10;;;;;;;;;;4967463;28;20059;-67
2022/03/19 11:25:25;;;;;;;5.95;2.00;;;;;;;;;;4956025;28;20047;-68
2022/03/19 11:27:52;;;;;;;5.25;1.95;;;;;;;;;;4965866;28;20585;-68
2022/03/19 11:30:23;;;;;;;6.20;1.90;;;;;;;;;;4957922;28;20151;-68
2022/03/19 11:32:59;;;;;;;6.25;1.85;;;;;;;;;;4974440;28;20050;-67
2022/03/19 11:35:26;;;;;;;6.05;1.80;;;;;;;;;;4965636;28;20436;-68
2022/03/19 11:37:57;;;;;;;8.95;1.80;;;;;;;;;;4954794;28;20047;-67
2022/03/19 11:40:28;;;;;;;5.28;1.90;;;;;;;;;;4967879;28;20831;-67
2022/03/19 11:43:16;;;;;;;10.13;1.55;;;;;;;;;;4955458;28;20066;-68
2022/03/19 11:45:53;;;;;;;7.47;1.70;;;;;;;;;;4963501;28;20086;-68
2022/03/19 11:48:35;;;;;;;4.60;1.73;;;;;;;;;;4957957;28;20046;-68
2022/03/19 11:51:22;;;;;;;6.18;1.52;;;;;;;;;;4984832;28;20062;-68
2022/03/19 11:54:12;;;;;;;4.15;1.48;;;;;;;;;;4958081;28;20084;-68
2022/03/19 11:56:38;;;;;;;6.25;1.95;;;;;;;;;;4975544;28;20492;-68
2022/03/19 11:59:07;;;;;;;6.65;1.55;;;;;;;;;;4970568;28;20054;-68
2022/03/19 12:01:47;;;;;;;8.38;1.70;;;;;;;;;;4967570;28;20188;-68
2022/03/19 12:04:14;;;;;;;7.57;1.30;;;;;;;;;;4976925;28;20467;-68
2022/03/19 12:06:51;;;;;;;4.22;1.35;;;;;;;;;;4958429;28;20054;-68
2022/03/19 12:09:18;;;;;;;5.45;1.40;;;;;;;;;;4975633;28;20085;-68
2022/03/19 12:12:03;;;;;;;6.47;1.63;;;;;;;;;;4969990;28;20058;-68
2022/03/19 12:14:29;;;;;;;5.18;1.67;;;;;;;;;;4972085;28;20053;-68
2022/03/19 12:17:13;;;;;;;5.45;1.50;;;;;;;;;;4970320;28;20066;-68
2022/03/19 12:19:51;;;;;;;6.13;1.30;;;;;;;;;;4971336;28;20467;-68
2022/03/19 12:22:33;;;;;;;5.60;1.50;;;;;;;;;;4970153;28;20483;-68
2022/03/19 12:25:18;;;;;;;5.43;1.30;;;;;;;;;;4968573;28;20058;-68
2022/03/19 12:27:52;;;;;;;7.10;1.38;;;;;;;;;;4976512;28;20061;-68
2022/03/19 12:30:20;;;;;;;6.35;1.50;;;;;;;;;;4968481;28;20046;-68
2022/03/19 12:32:57;;;;;;;4.78;1.20;;;;;;;;;;4972867;28;20050;-68
2022/03/19 12:35:24;;;;;;;6.38;1.58;;;;;;;;;;4963047;28;20050;-68
2022/03/19 12:37:54;;;;;;;5.82;1.30;;;;;;;;;;4977470;28;20061;-68
2022/03/19 12:40:22;;;;;;;4.95;1.48;;;;;;;;;;4967207;28;20053;-69
2022/03/19 12:42:57;;;;;;;4.45;1.55;;;;;;;;;;4977655;28;20057;-68
2022/03/19 12:45:40;;;;;;;5.68;1.40;;;;;;;;;;4972422;28;20359;-68
2022/03/19 12:48:11;;;;;;;5.15;1.67;;;;;;;;;;4971041;28;20057;-68
2022/03/19 12:50:38;;;;;;;6.45;1.50;;;;;;;;;;4980531;28;20092;-68
2022/03/19 12:53:04;;;;;;;3.65;1.45;;;;;;;;;;4966271;28;20399;-68
2022/03/19 12:55:31;;;;;;;7.30;1.77;;;;;;;;;;4973981;28;20050;-69
2022/03/19 12:57:58;;;;;;;4.85;1.70;;;;;;;;;;4968549;28;20507;-69
2022/03/19 13:00:25;;;;;;;5.45;1.23;;;;;;;;;;4971429;28;20253;-69
2022/03/19 13:02:52;;;;;;;6.05;1.60;;;;;;;;;;4966917;28;20054;-69
2022/03/19 13:05:19;;;;;;;5.13;1.33;;;;;;;;;;4968156;28;20162;-69
2022/03/19 13:08:01;;;;;;;5.80;1.52;;;;;;;;;;4974860;28;20488;-69
2022/03/19 13:10:28;;;;;;;6.50;1.70;;;;;;;;;;4969065;28;20058;-69
2022/03/19 13:13:04;;;;;;;4.85;1.38;;;;;;;;;;4976362;28;20138;-69
2022/03/19 13:15:30;;;;;;;4.45;1.50;;;;;;;;;;4957401;28;20140;-68
2022/03/19 13:17:57;;;;;;;10.45;1.70;;;;;;;;;;4970027;28;20046;-69
2022/03/19 13:20:23;;;;;;;4.75;1.48;;;;;;;;;;4973182;28;20050;-68
2022/03/19 13:22:50;;;;;;;7.50;1.50;;;;;;;;;;4968965;28;20061;-69
2022/03/19 13:25:17;;;;;;;5.35;1.50;;;;;;;;;;4978743;28;20055;-69
2022/03/19 13:27:48;;;;;;;9.07;1.40;;;;;;;;;;4958926;28;20038;-70
2022/03/19 13:30:15;;;;;;;4.82;1.40;;;;;;;;;;4964690;28;20051;-69
2022/03/19 13:32:42;;;;;;;6.25;1.20;;;;;;;;;;4960014;28;20455;-68
2022/03/19 13:35:08;;;;;;;4.88;1.35;;;;;;;;;;4969766;28;20074;-68
2022/03/19 13:37:38;;;;;;;11.57;1.67;;;;;;;;;;4973683;28;20039;-69
2022/03/19 13:40:07;;;;;;;3.53;1.20;;;;;;;;;;4967321;28;20057;-68
2022/03/19 13:42:35;;;;;;;5.38;1.25;;;;;;;;;;4972985;28;20497;-69
2022/03/19 13:45:04;;;;;;;8.37;1.37;;;;;;;;;;4962468;28;20054;-68
2022/03/19 13:47:32;;;;;;;6.00;1.40;;;;;;;;;;4971578;28;20070;-69
2022/03/19 13:49:59;;;;;;;4.83;1.00;;;;;;;;;;4962848;28;20058;-69
2022/03/19 13:52:35;;;;;;;5.82;1.20;;;;;;;;;;4979091;28;20042;-69
2022/03/19 13:55:01;;;;;;;6.22;1.15;;;;;;;;;;4980158;28;20344;-69
2022/03/19 13:57:38;;;;;;;3.28;1.33;;;;;;;;;;4958077;28;20136;-68
2022/03/19 14:00:11;;;;;;;1.00;0.90;;;;;;;;;;4980132;28;20042;-69
2022/03/19 14:02:39;;;;;;;5.72;1.38;;;;;;;;;;4973443;28;20327;-68
2022/03/19 14:05:06;;;;;;;4.03;1.13;;;;;;;;;;4978847;28;20637;-69
2022/03/19 14:07:34;;;;;;;3.05;0.85;;;;;;;;;;4963171;28;20058;-69
2022/03/19 14:10:00;;;;;;;4.78;2.00;;;;;;;;;;4965709;28;20131;-69
2022/03/19 14:12:34;;;;;;;4.53;1.42;;;;;;;;;;4963510;28;20050;-69
2022/03/19 14:15:00;;;;;;;6.13;1.00;;;;;;;;;;4976941;28;20559;-69
2022/03/19 14:17:45;;;;;;;2.72;1.20;;;;;;;;;;4973750;28;20069;-69
2022/03/19 14:20:11;;;;;;;5.78;1.25;;;;;;;;;;4959564;28;20365;-68
2022/03/19 14:22:38;;;;;;;4.35;1.00;;;;;;;;;;4975907;28;20054;-69
2022/03/19 14:25:04;;;;;;;4.32;1.10;;;;;;;;;;4966079;28;20050;-69
2022/03/19 14:27:31;;;;;;;3.42;0.90;;;;;;;;;;4976200;28;20053;-69
2022/03/19 14:30:17;;;;;;;2.72;0.88;;;;;;;;;;4965860;28;20051;-69
2022/03/19 14:32:43;;;;;;;3.97;0.90;;;;;;;;;;4978978;28;20054;-68
2022/03/19 14:35:33;;;;;;;3.53;1.10;;;;;;;;;;4979805;28;20445;-70
2022/03/19 14:37:59;;;;;;;4.30;1.13;;;;;;;;;;4967880;28;20785;-69
2022/03/19 14:40:25;;;;;;;5.80;1.00;;;;;;;;;;4972101;28;20488;-69
2022/03/19 14:42:52;;;;;;;7.43;0.88;;;;;;;;;;4970105;28;20061;-69
2022/03/19 14:45:23;;;;;;;3.97;1.00;;;;;;;;;;4979937;28;20042;-69
2022/03/19 14:47:50;;;;;;;3.30;1.10;;;;;;;;;;4967250;28;20046;-69
2022/03/19 14:50:16;;;;;;;6.60;1.10;;;;;;;;;;4980581;28;20061;-69
2022/03/19 14:52:42;;;;;;;5.38;0.90;;;;;;;;;;4973526;28;20524;-69
2022/03/19 14:55:09;;;;;;;2.97;0.98;;;;;;;;;;4960628;28;20464;-69
2022/03/19 14:57:35;;;;;;;3.15;1.02;;;;;;;;;;4979487;28;20054;-69